createdAt,value
2018-05-03T00:00:45.630Z,6.18
2018-05-03T00:01:45.628Z,6.42
2018-05-03T00:02:45.628Z,6.44
2018-05-03T00:03:45.739Z,6.39
2018-05-03T00:04:45.615Z,6.23
2018-05-03T00:05:45.605Z,6.4
2018-05-03T00:06:45.625Z,6.18
2018-05-03T00:07:45.762Z,6.39
2018-05-03T00:08:45.610Z,6.63
2018-05-03T00:09:45.728Z,6.47
2018-05-03T00:10:45.656Z,6.46
2018-05-03T00:11:45.654Z,6.52
2018-05-03T00:12:45.638Z,6.48
2018-05-03T00:13:45.635Z,6.58
2018-05-03T00:14:45.648Z,6.51
2018-05-03T00:15:45.666Z,6.64
2018-05-03T00:16:45.663Z,6.57
2018-05-03T00:17:45.639Z,6.53
2018-05-03T00:18:45.637Z,6.53
2018-05-03T00:19:45.639Z,6.49
2018-05-03T00:20:45.648Z,6.41
2018-05-03T00:21:45.630Z,6.52
2018-05-03T00:22:45.630Z,6.58
2018-05-03T00:23:45.681Z,6.5
2018-05-03T00:24:45.632Z,6.42
2018-05-03T00:25:45.618Z,6.27
2018-05-03T00:26:45.837Z,6.29
2018-05-03T00:27:45.631Z,6.62
2018-05-03T00:28:45.628Z,6.46
2018-05-03T00:29:45.632Z,6.57
2018-05-03T00:30:45.651Z,6.43
2018-05-03T00:31:45.752Z,6.67
2018-05-03T00:32:45.607Z,6.68
2018-05-03T00:33:45.767Z,6.7
2018-05-03T00:34:45.649Z,6.62
2018-05-03T00:35:45.652Z,6.64
2018-05-03T00:36:45.639Z,6.6
2018-05-03T00:37:45.805Z,6.65
2018-05-03T00:38:45.619Z,6.7
2018-05-03T00:39:45.643Z,6.66
2018-05-03T00:40:45.620Z,6.71
2018-05-03T00:41:45.811Z,6.84
2018-05-03T00:42:45.634Z,6.47
2018-05-03T00:43:45.630Z,6.51
2018-05-03T00:44:45.709Z,6.44
2018-05-03T00:45:46.091Z,6.58
2018-05-03T00:46:45.629Z,6.59
2018-05-03T00:47:45.636Z,6.63
2018-05-03T00:48:45.633Z,6.75
2018-05-03T00:49:45.640Z,6.82
2018-05-03T00:50:45.633Z,6.72
2018-05-03T00:51:45.645Z,6.51
2018-05-03T00:52:45.631Z,6.74
2018-05-03T00:53:45.634Z,6.77
2018-05-03T00:54:45.652Z,6.57
2018-05-03T00:55:45.621Z,6.58
2018-05-03T00:56:45.633Z,6.85
2018-05-03T00:57:45.639Z,6.85
2018-05-03T00:58:45.660Z,6.82
2018-05-03T00:59:45.657Z,6.83
2018-05-03T01:00:45.627Z,6.67
2018-05-03T01:01:45.621Z,6.78
2018-05-03T01:02:45.732Z,6.76
2018-05-03T01:03:45.640Z,6.72
2018-05-03T01:04:45.631Z,6.74
2018-05-03T01:05:45.624Z,6.76
2018-05-03T01:06:45.627Z,6.77
2018-05-03T01:07:45.672Z,6.72
2018-05-03T01:08:45.659Z,6.66
2018-05-03T01:09:45.630Z,6.75
2018-05-03T01:10:45.660Z,6.74
2018-05-03T01:11:45.634Z,6.64
2018-05-03T01:12:45.670Z,6.52
2018-05-03T01:13:45.674Z,6.68
2018-05-03T01:14:45.640Z,6.76
2018-05-03T01:15:45.676Z,6.59
2018-05-03T01:16:45.705Z,6.58
2018-05-03T01:17:45.675Z,6.58
2018-05-03T01:18:45.662Z,6.58
2018-05-03T01:19:45.682Z,6.59
2018-05-03T01:20:45.732Z,6.74
2018-05-03T01:21:45.667Z,6.79
2018-05-03T01:22:45.638Z,6.9
2018-05-03T01:23:45.719Z,6.72
2018-05-03T01:24:45.620Z,6.93
2018-05-03T01:25:45.711Z,6.8
2018-05-03T01:26:45.661Z,6.98
2018-05-03T01:27:45.871Z,7.03
2018-05-03T01:28:45.629Z,6.9
2018-05-03T01:29:45.646Z,6.75
2018-05-03T01:30:45.645Z,6.95
2018-05-03T01:31:45.657Z,6.98
2018-05-03T01:32:45.646Z,7.05
2018-05-03T01:33:45.651Z,7.01
2018-05-03T01:34:45.630Z,6.99
2018-05-03T01:35:45.632Z,7.04
2018-05-03T01:36:45.632Z,7.02
2018-05-03T01:37:45.637Z,7.12
2018-05-03T01:38:45.735Z,7.08
2018-05-03T01:39:45.648Z,7.12
2018-05-03T01:40:45.633Z,7.03
2018-05-03T01:41:45.657Z,7.09
2018-05-03T01:42:45.661Z,7.04
2018-05-03T01:43:45.666Z,6.9
2018-05-03T01:44:45.648Z,6.87
2018-05-03T01:45:45.685Z,6.96
2018-05-03T01:46:45.667Z,7.01
2018-05-03T01:47:45.675Z,6.86
2018-05-03T01:48:45.830Z,6.95
2018-05-03T01:49:45.883Z,7.05
2018-05-03T01:50:45.663Z,6.85
2018-05-03T01:51:45.660Z,6.88
2018-05-03T01:52:45.677Z,7.01
2018-05-03T01:53:45.690Z,6.7
2018-05-03T01:54:46.418Z,6.64
2018-05-03T01:55:45.671Z,6.77
2018-05-03T01:56:45.690Z,6.69
2018-05-03T01:57:45.676Z,6.67
2018-05-03T01:58:45.687Z,7.05
2018-05-03T01:59:45.663Z,6.91
2018-05-03T02:00:45.668Z,6.88
2018-05-03T02:01:45.695Z,6.89
2018-05-03T02:02:45.670Z,6.97
2018-05-03T02:03:45.693Z,7.05
2018-05-03T02:04:45.654Z,7.04
2018-05-03T02:05:45.657Z,7.07
2018-05-03T02:06:45.682Z,6.99
2018-05-03T02:07:45.673Z,6.96
2018-05-03T02:08:45.677Z,6.94
2018-05-03T02:09:45.662Z,7.02
2018-05-03T02:10:45.692Z,7.04
2018-05-03T02:11:45.652Z,7.05
2018-05-03T02:12:45.694Z,7
2018-05-03T02:13:45.657Z,6.84
2018-05-03T02:14:45.686Z,7.09
2018-05-03T02:15:45.650Z,7.08
2018-05-03T02:16:45.683Z,7.08
2018-05-03T02:17:45.762Z,7.25
2018-05-03T02:18:45.662Z,7.25
2018-05-03T02:19:45.668Z,7.02
2018-05-03T02:20:45.695Z,7.2
2018-05-03T02:21:45.709Z,7.11
2018-05-03T02:22:45.685Z,7.1
2018-05-03T02:23:45.690Z,7.19
2018-05-03T02:24:45.657Z,7.12
2018-05-03T02:25:45.682Z,7.14
2018-05-03T02:26:45.665Z,7.02
2018-05-03T02:27:45.658Z,6.97
2018-05-03T02:28:45.686Z,7.26
2018-05-03T02:29:45.671Z,7.29
2018-05-03T02:30:45.700Z,7.36
2018-05-03T02:31:45.767Z,7.25
2018-05-03T02:32:45.688Z,7.29
2018-05-03T02:33:45.702Z,7.23
2018-05-03T02:34:45.687Z,7.27
2018-05-03T02:35:45.685Z,7.23
2018-05-03T02:36:45.709Z,7.23
2018-05-03T02:37:45.661Z,7.19
2018-05-03T02:38:45.685Z,7.02
2018-05-03T02:39:45.743Z,7.16
2018-05-03T02:40:45.714Z,7.09
2018-05-03T02:41:45.692Z,7.19
2018-05-03T02:42:45.827Z,7.33
2018-05-03T02:43:45.684Z,7.36
2018-05-03T02:44:45.748Z,7.31
2018-05-03T02:45:45.681Z,7.23
2018-05-03T02:46:45.743Z,7.32
2018-05-03T02:47:45.724Z,7.29
2018-05-03T02:48:45.682Z,7.26
2018-05-03T02:49:45.704Z,7.11
2018-05-03T02:50:45.836Z,7.27
2018-05-03T02:51:45.697Z,7.1
2018-05-03T02:52:45.707Z,7.14
2018-05-03T02:53:45.822Z,7.14
2018-05-03T02:54:45.699Z,7.21
2018-05-03T02:55:45.704Z,7.11
2018-05-03T02:56:45.711Z,7.06
2018-05-03T02:57:45.711Z,7.1
2018-05-03T02:58:45.690Z,7.13
2018-05-03T02:59:45.725Z,7.12
2018-05-03T03:00:45.718Z,7.2
2018-05-03T03:01:45.780Z,7.26
2018-05-03T03:02:45.674Z,7.37
2018-05-03T03:03:45.701Z,7.07
2018-05-03T03:04:45.703Z,7.38
2018-05-03T03:05:45.779Z,7.18
2018-05-03T03:06:45.721Z,7.13
2018-05-03T03:07:45.711Z,7.55
2018-05-03T03:08:45.724Z,7.51
2018-05-03T03:09:46.256Z,7.35
2018-05-03T03:10:45.712Z,7.56
2018-05-03T03:11:45.738Z,7.43
2018-05-03T03:12:45.705Z,7.42
2018-05-03T03:13:45.695Z,7.19
2018-05-03T03:14:45.713Z,7.23
2018-05-03T03:15:45.701Z,7.32
2018-05-03T03:16:45.691Z,7.21
2018-05-03T03:17:45.705Z,7.19
2018-05-03T03:18:45.700Z,7.48
2018-05-03T03:19:45.679Z,7.37
2018-05-03T03:20:45.706Z,7.31
2018-05-03T03:21:45.710Z,7.39
2018-05-03T03:22:45.707Z,7.14
2018-05-03T03:23:45.712Z,7.19
2018-05-03T03:24:45.709Z,7.3
2018-05-03T03:25:45.689Z,7.29
2018-05-03T03:26:45.706Z,7.17
2018-05-03T03:27:45.696Z,7.35
2018-05-03T03:28:45.689Z,7.25
2018-05-03T03:29:45.723Z,7.27
2018-05-03T03:30:45.756Z,7.24
2018-05-03T03:31:45.768Z,7.17
2018-05-03T03:32:45.872Z,7.25
2018-05-03T03:33:45.741Z,7.3
2018-05-03T03:34:45.713Z,7.13
2018-05-03T03:35:45.712Z,7.12
2018-05-03T03:36:45.715Z,7
2018-05-03T03:37:45.692Z,7.14
2018-05-03T03:38:45.895Z,7.01
2018-05-03T03:39:45.718Z,7.02
2018-05-03T03:40:45.785Z,7.1
2018-05-03T03:41:45.697Z,7.23
2018-05-03T03:42:45.696Z,7.24
2018-05-03T03:43:45.689Z,7.21
2018-05-03T03:44:45.734Z,7.24
2018-05-03T03:45:45.728Z,7.2
2018-05-03T03:46:45.706Z,7.19
2018-05-03T03:47:45.731Z,7.18
2018-05-03T03:48:45.712Z,7.21
2018-05-03T03:49:45.805Z,7.09
2018-05-03T03:50:45.761Z,7.01
2018-05-03T03:51:45.698Z,6.96
2018-05-03T03:52:45.798Z,6.92
2018-05-03T03:53:45.706Z,6.96
2018-05-03T03:54:45.848Z,6.88
2018-05-03T03:55:45.741Z,6.96
2018-05-03T03:56:45.758Z,6.84
2018-05-03T03:57:45.720Z,6.86
2018-05-03T03:58:45.750Z,6.85
2018-05-03T03:59:45.723Z,6.82
2018-05-03T04:00:45.727Z,6.82
2018-05-03T04:01:45.725Z,6.89
2018-05-03T04:02:45.710Z,6.96
2018-05-03T04:03:45.747Z,6.96
2018-05-03T04:04:45.719Z,6.92
2018-05-03T04:05:45.752Z,6.87
2018-05-03T04:06:45.703Z,6.93
2018-05-03T04:07:45.730Z,6.81
2018-05-03T04:08:45.721Z,6.75
2018-05-03T04:09:45.727Z,6.75
2018-05-03T04:10:45.731Z,6.87
2018-05-03T04:11:45.785Z,6.91
2018-05-03T04:12:45.763Z,6.86
2018-05-03T04:13:45.704Z,6.92
2018-05-03T04:14:45.738Z,6.76
2018-05-03T04:15:45.695Z,6.94
2018-05-03T04:16:45.700Z,6.9
2018-05-03T04:17:45.750Z,6.96
2018-05-03T04:18:45.791Z,6.94
2018-05-03T04:19:45.758Z,6.98
2018-05-03T04:20:45.721Z,7.01
2018-05-03T04:21:45.723Z,6.95
2018-05-03T04:22:45.739Z,6.99
2018-05-03T04:23:45.773Z,6.89
2018-05-03T04:24:45.750Z,6.8
2018-05-03T04:25:45.721Z,6.92
2018-05-03T04:26:45.755Z,6.81
2018-05-03T04:27:45.732Z,6.83
2018-05-03T04:28:45.715Z,7.02
2018-05-03T04:29:45.979Z,7.13
2018-05-03T04:30:45.730Z,7.19
2018-05-03T04:31:45.736Z,7.2
2018-05-03T04:32:45.742Z,7.44
2018-05-03T04:33:45.728Z,7.53
2018-05-03T04:34:45.748Z,7.55
2018-05-03T04:35:45.728Z,7.54
2018-05-03T04:36:45.760Z,7.6
2018-05-03T04:37:46.823Z,7.57
2018-05-03T04:38:45.949Z,7.5
2018-05-03T04:39:45.757Z,7.55
2018-05-03T04:40:45.728Z,7.54
2018-05-03T04:41:45.757Z,7.5
2018-05-03T04:42:45.739Z,7.55
2018-05-03T04:43:45.761Z,7.59
2018-05-03T04:44:45.754Z,7.59
2018-05-03T04:45:45.779Z,7.57
2018-05-03T04:46:45.725Z,7.57
2018-05-03T04:47:45.733Z,7.55
2018-05-03T04:48:45.742Z,7.56
2018-05-03T04:49:45.759Z,7.54
2018-05-03T04:50:45.931Z,7.48
2018-05-03T04:51:45.838Z,7.49
2018-05-03T04:52:45.752Z,7.5
2018-05-03T04:53:45.813Z,7.5
2018-05-03T04:54:45.935Z,7.41
2018-05-03T04:55:45.775Z,7.42
2018-05-03T04:56:45.758Z,7.34
2018-05-03T04:57:45.729Z,7.35
2018-05-03T04:58:45.739Z,7.42
2018-05-03T04:59:45.760Z,7.47
2018-05-03T05:00:45.751Z,7.46
2018-05-03T05:01:45.737Z,7.45
2018-05-03T05:02:45.761Z,7.43
2018-05-03T05:03:45.734Z,7.46
2018-05-03T05:04:46.242Z,7.42
2018-05-03T05:05:45.765Z,7.43
2018-05-03T05:06:45.740Z,7.45
2018-05-03T05:07:45.813Z,7.4
2018-05-03T05:08:45.751Z,7.46
2018-05-03T05:09:45.801Z,7.42
2018-05-03T05:10:45.756Z,7.41
2018-05-03T05:11:45.755Z,7.43
2018-05-03T05:12:45.750Z,7.5
2018-05-03T05:13:45.752Z,7.49
2018-05-03T05:14:45.784Z,7.49
2018-05-03T05:15:45.764Z,7.53
2018-05-03T05:16:45.761Z,7.57
2018-05-03T05:17:45.776Z,7.58
2018-05-03T05:18:45.749Z,7.56
2018-05-03T05:19:45.837Z,7.64
2018-05-03T05:20:45.757Z,7.53
2018-05-03T05:21:45.836Z,7.6
2018-05-03T05:22:45.787Z,7.57
2018-05-03T05:23:45.740Z,7.6
2018-05-03T05:24:45.753Z,7.58
2018-05-03T05:25:45.760Z,7.48
2018-05-03T05:26:45.740Z,7.52
2018-05-03T05:27:45.803Z,7.51
2018-05-03T05:28:45.727Z,7.52
2018-05-03T05:29:45.784Z,7.51
2018-05-03T05:30:46.292Z,7.53
2018-05-03T05:31:45.784Z,7.53
2018-05-03T05:32:45.768Z,7.5
2018-05-03T05:33:45.785Z,7.52
2018-05-03T05:34:45.787Z,7.53
2018-05-03T05:35:45.760Z,7.47
2018-05-03T05:36:45.746Z,7.44
2018-05-03T05:37:45.751Z,7.51
2018-05-03T05:38:46.282Z,7.53
2018-05-03T05:39:45.910Z,7.53
2018-05-03T05:40:45.768Z,7.5
2018-05-03T05:41:45.735Z,7.5
2018-05-03T05:42:45.782Z,7.35
2018-05-03T05:43:45.788Z,7.38
2018-05-03T05:44:45.867Z,7.4
2018-05-03T05:45:45.824Z,7.39
2018-05-03T05:46:45.779Z,7.43
2018-05-03T05:47:45.771Z,7.44
2018-05-03T05:48:45.790Z,7.4
2018-05-03T05:49:45.741Z,7.45
2018-05-03T05:50:45.730Z,7.44
2018-05-03T05:51:45.812Z,7.39
2018-05-03T05:52:45.759Z,7.38
2018-05-03T05:53:45.788Z,7.4
2018-05-03T05:54:45.765Z,7.4
2018-05-03T05:55:45.768Z,7.46
2018-05-03T05:56:46.164Z,7.5
2018-05-03T05:57:45.757Z,7.57
2018-05-03T05:58:45.768Z,7.51
2018-05-03T05:59:45.882Z,7.51
2018-05-03T06:00:45.742Z,7.59
2018-05-03T06:01:45.935Z,7.53
2018-05-03T06:02:45.765Z,7.53
2018-05-03T06:03:45.728Z,7.41
2018-05-03T06:04:45.763Z,7.49
2018-05-03T06:05:45.749Z,7.52
2018-05-03T06:06:45.894Z,7.42
2018-05-03T06:07:45.760Z,7.41
2018-05-03T06:08:45.749Z,7.44
2018-05-03T06:09:45.797Z,7.47
2018-05-03T06:10:45.771Z,7.58
2018-05-03T06:11:45.788Z,7.6
2018-05-03T06:12:45.760Z,7.52
2018-05-03T06:13:45.760Z,7.5
2018-05-03T06:14:45.766Z,7.4
2018-05-03T06:15:45.854Z,7.43
2018-05-03T06:16:45.757Z,7.59
2018-05-03T06:17:45.779Z,7.6
2018-05-03T06:18:45.772Z,7.75
2018-05-03T06:19:45.751Z,7.8
2018-05-03T06:20:45.784Z,7.89
2018-05-03T06:21:45.864Z,7.61
2018-05-03T06:22:45.779Z,7.76
2018-05-03T06:23:45.768Z,7.74
2018-05-03T06:24:45.803Z,7.79
2018-05-03T06:25:45.788Z,8.01
2018-05-03T06:26:45.761Z,7.88
2018-05-03T06:27:45.781Z,7.92
2018-05-03T06:28:45.819Z,7.89
2018-05-03T06:29:45.763Z,7.98
2018-05-03T06:30:45.814Z,7.96
2018-05-03T06:31:45.786Z,7.92
2018-05-03T06:32:45.762Z,7.97
2018-05-03T06:33:45.777Z,7.74
2018-05-03T06:34:47.044Z,7.82
2018-05-03T06:35:45.773Z,7.89
2018-05-03T06:36:45.781Z,7.87
2018-05-03T06:37:45.820Z,7.89
2018-05-03T06:38:46.033Z,7.88
2018-05-03T06:39:45.782Z,7.64
2018-05-03T06:40:45.826Z,7.55
2018-05-03T06:41:45.783Z,7.69
2018-05-03T06:42:45.828Z,7.74
2018-05-03T06:43:45.751Z,7.69
2018-05-03T06:44:45.797Z,7.54
2018-05-03T06:45:45.762Z,7.63
2018-05-03T06:46:45.773Z,7.52
2018-05-03T06:47:45.876Z,7.64
2018-05-03T06:48:45.780Z,7.49
2018-05-03T06:49:45.789Z,7.63
2018-05-03T06:50:45.804Z,7.68
2018-05-03T06:51:45.768Z,7.75
2018-05-03T06:52:45.756Z,7.68
2018-05-03T06:53:45.832Z,7.63
2018-05-03T06:54:45.953Z,7.58
2018-05-03T06:55:45.751Z,7.68
2018-05-03T06:56:45.793Z,7.68
2018-05-03T06:57:45.774Z,7.49
2018-05-03T06:58:45.792Z,7.29
2018-05-03T06:59:45.775Z,7.35
2018-05-03T07:00:45.836Z,7.25
2018-05-03T07:01:45.790Z,7.04
2018-05-03T07:02:45.784Z,7.19
2018-05-03T07:03:45.787Z,7
2018-05-03T07:04:45.785Z,7.02
2018-05-03T07:05:45.770Z,6.97
2018-05-03T07:06:45.829Z,7.13
2018-05-03T07:07:45.812Z,7.1
2018-05-03T07:08:45.776Z,7.18
2018-05-03T07:09:45.784Z,7.01
2018-05-03T07:10:45.778Z,7.04
2018-05-03T07:11:45.797Z,7.03
2018-05-03T07:12:45.775Z,7.01
2018-05-03T07:13:45.774Z,6.84
2018-05-03T07:14:45.809Z,7.03
2018-05-03T07:15:45.773Z,6.85
2018-05-03T07:16:45.778Z,6.99
2018-05-03T07:17:45.794Z,6.76
2018-05-03T07:18:45.802Z,6.89
2018-05-03T07:19:45.801Z,6.83
2018-05-03T07:20:45.822Z,6.87
2018-05-03T07:21:45.837Z,6.7
2018-05-03T07:22:45.779Z,6.72
2018-05-03T07:23:45.985Z,6.73
2018-05-03T07:24:45.799Z,6.76
2018-05-03T07:25:45.800Z,6.72
2018-05-03T07:26:45.779Z,6.62
2018-05-03T07:27:45.822Z,6.62
2018-05-03T07:28:45.812Z,6.52
2018-05-03T07:29:45.787Z,6.32
2018-05-03T07:30:45.823Z,6.27
2018-05-03T07:31:45.814Z,6.42
2018-05-03T07:32:45.846Z,6.3
2018-05-03T07:33:45.788Z,6.29
2018-05-03T07:34:46.225Z,6.3
2018-05-03T07:35:45.909Z,6.4
2018-05-03T07:36:45.814Z,6.33
2018-05-03T07:37:45.839Z,6.31
2018-05-03T07:38:45.811Z,6.31
2018-05-03T07:39:45.802Z,6.29
2018-05-03T07:40:46.720Z,6.36
2018-05-03T07:41:45.796Z,6.32
2018-05-03T07:42:45.871Z,6.39
2018-05-03T07:43:45.823Z,6.33
2018-05-03T07:44:45.869Z,6.43
2018-05-03T07:45:46.177Z,6.48
2018-05-03T07:46:45.840Z,6.47
2018-05-03T07:47:45.825Z,6.54
2018-05-03T07:48:45.844Z,6.45
2018-05-03T07:49:45.795Z,6.47
2018-05-03T07:50:45.827Z,6.47
2018-05-03T07:51:45.837Z,6.55
2018-05-03T07:52:45.827Z,6.39
2018-05-03T07:53:45.800Z,6.42
2018-05-03T07:54:45.798Z,6.49
2018-05-03T07:55:45.800Z,6.5
2018-05-03T07:56:46.395Z,6.54
2018-05-03T07:57:45.854Z,6.52
2018-05-03T07:58:45.821Z,6.66
2018-05-03T07:59:45.794Z,6.57
2018-05-03T08:00:45.798Z,6.59
2018-05-03T08:01:45.812Z,6.52
2018-05-03T08:02:45.812Z,6.51
2018-05-03T08:03:45.887Z,6.41
2018-05-03T08:04:46.056Z,6.37
2018-05-03T08:05:45.801Z,6.39
2018-05-03T08:06:45.821Z,6.27
2018-05-03T08:07:46.702Z,6.22
2018-05-03T08:08:45.885Z,6.35
2018-05-03T08:09:45.900Z,6.16
2018-05-03T08:10:45.803Z,6.1
2018-05-03T08:11:45.825Z,6.12
2018-05-03T08:12:45.796Z,6.2
2018-05-03T08:13:45.785Z,6.21
2018-05-03T08:14:45.806Z,6.27
2018-05-03T08:15:45.800Z,6.26
2018-05-03T08:16:45.816Z,6.27
2018-05-03T08:17:45.824Z,6.26
2018-05-03T08:18:45.815Z,6.22
2018-05-03T08:19:45.803Z,6.31
2018-05-03T08:20:45.849Z,6.3
2018-05-03T08:21:45.856Z,6.47
2018-05-03T08:22:45.830Z,6.41
2018-05-03T08:23:45.824Z,6.5
2018-05-03T08:24:45.823Z,6.53
2018-05-03T08:25:45.821Z,6.58
2018-05-03T08:26:45.835Z,6.67
2018-05-03T08:27:45.935Z,6.65
2018-05-03T08:28:45.828Z,6.63
2018-05-03T08:29:45.810Z,6.48
2018-05-03T08:30:45.840Z,6.65
2018-05-03T08:31:46.258Z,6.8
2018-05-03T08:32:45.888Z,6.87
2018-05-03T08:33:45.896Z,6.86
2018-05-03T08:34:45.856Z,6.62
2018-05-03T08:35:45.822Z,6.8
2018-05-03T08:36:45.841Z,6.88
2018-05-03T08:37:45.827Z,6.86
2018-05-03T08:38:45.834Z,6.94
2018-05-03T08:39:45.830Z,6.93
2018-05-03T08:40:45.837Z,7.03
2018-05-03T08:41:45.966Z,7.04
2018-05-03T08:42:45.820Z,7.03
2018-05-03T08:43:45.824Z,6.99
2018-05-03T08:44:45.849Z,7.01
2018-05-03T08:45:45.841Z,7
2018-05-03T08:46:45.843Z,7.02
2018-05-03T08:47:45.875Z,6.76
2018-05-03T08:48:45.832Z,6.74
2018-05-03T08:49:45.882Z,6.74
2018-05-03T08:50:45.814Z,6.81
2018-05-03T08:51:45.837Z,6.74
2018-05-03T08:52:45.852Z,6.73
2018-05-03T08:53:45.846Z,6.95
2018-05-03T08:54:45.886Z,6.91
2018-05-03T08:55:46.146Z,7.03
2018-05-03T08:56:45.847Z,7.15
2018-05-03T08:57:45.852Z,7.1
2018-05-03T08:58:46.006Z,7.18
2018-05-03T08:59:45.893Z,7.31
2018-05-03T09:00:45.814Z,7.37
2018-05-03T09:01:46.259Z,7.33
2018-05-03T09:02:45.858Z,7.46
2018-05-03T09:03:45.848Z,7.5
2018-05-03T09:04:45.839Z,7.19
2018-05-03T09:05:46.006Z,7.29
2018-05-03T09:06:45.840Z,7.37
2018-05-03T09:07:46.145Z,7.39
2018-05-03T09:08:45.850Z,7.41
2018-05-03T09:09:45.989Z,7.39
2018-05-03T09:10:45.855Z,7.36
2018-05-03T09:11:45.883Z,7.33
2018-05-03T09:12:45.851Z,7.42
2018-05-03T09:13:45.839Z,7.33
2018-05-03T09:14:45.958Z,7.39
2018-05-03T09:15:45.882Z,7.4
2018-05-03T09:16:45.904Z,7.01
2018-05-03T09:17:45.884Z,6.99
2018-05-03T09:18:45.844Z,6.65
2018-05-03T09:19:45.861Z,6.86
2018-05-03T09:20:45.835Z,7.23
2018-05-03T09:21:45.833Z,7.02
2018-05-03T09:22:45.863Z,7.16
2018-05-03T09:23:45.851Z,7.3
2018-05-03T09:24:45.846Z,7.41
2018-05-03T09:25:45.846Z,7.29
2018-05-03T09:26:45.989Z,7.35
2018-05-03T09:27:45.856Z,7.42
2018-05-03T09:28:45.851Z,7.13
2018-05-03T09:29:45.891Z,6.83
2018-05-03T09:30:45.845Z,6.99
2018-05-03T09:31:45.867Z,6.91
2018-05-03T09:32:45.843Z,7.03
2018-05-03T09:33:45.865Z,7.11
2018-05-03T09:34:45.867Z,7.1
2018-05-03T09:35:45.916Z,7.12
2018-05-03T09:36:45.881Z,6.96
2018-05-03T09:37:45.844Z,7.01
2018-05-03T09:38:45.855Z,7.27
2018-05-03T09:39:45.866Z,7.11
2018-05-03T09:40:45.894Z,6.96
2018-05-03T09:41:45.940Z,7.06
2018-05-03T09:42:45.857Z,7.21
2018-05-03T09:43:45.855Z,7.28
2018-05-03T09:44:46.306Z,7.07
2018-05-03T09:45:45.932Z,7.25
2018-05-03T09:46:45.907Z,7.36
2018-05-03T09:47:46.012Z,7
2018-05-03T09:48:45.868Z,6.78
2018-05-03T09:49:46.005Z,6.73
2018-05-03T09:50:45.946Z,7.05
2018-05-03T09:51:45.935Z,7.05
2018-05-03T09:52:45.995Z,7.23
2018-05-03T09:53:46.160Z,7.05
2018-05-03T09:54:45.889Z,6.9
2018-05-03T09:55:45.883Z,6.82
2018-05-03T09:56:45.849Z,6.99
2018-05-03T09:57:45.967Z,6.94
2018-05-03T09:58:45.916Z,7.08
2018-05-03T09:59:45.980Z,6.96
2018-05-03T10:00:45.918Z,7.27
2018-05-03T10:01:45.882Z,7.15
2018-05-03T10:02:45.922Z,7.28
2018-05-03T10:03:45.849Z,7.28
2018-05-03T10:04:46.480Z,7.39
2018-05-03T10:05:45.961Z,7.16
2018-05-03T10:06:45.895Z,7.15
2018-05-03T10:07:45.894Z,7.07
2018-05-03T10:08:45.879Z,7.15
2018-05-03T10:09:45.885Z,7.31
2018-05-03T10:10:45.909Z,7.36
2018-05-03T10:11:45.906Z,7.41
2018-05-03T10:12:45.915Z,7.46
2018-05-03T10:13:45.868Z,7.44
2018-05-03T10:14:45.903Z,7.24
2018-05-03T10:15:45.926Z,7.27
2018-05-03T10:16:45.898Z,7.28
2018-05-03T10:17:45.922Z,7.39
2018-05-03T10:18:46.022Z,7.37
2018-05-03T10:19:46.001Z,7.34
2018-05-03T10:20:45.876Z,7.46
2018-05-03T10:21:45.885Z,7.37
2018-05-03T10:22:45.896Z,7.46
2018-05-03T10:23:46.023Z,7.38
2018-05-03T10:24:45.938Z,7.56
2018-05-03T10:25:45.910Z,7.15
2018-05-03T10:26:45.930Z,7.48
2018-05-03T10:27:45.930Z,7.4
2018-05-03T10:28:45.917Z,7.4
2018-05-03T10:29:45.859Z,7.48
2018-05-03T10:30:45.920Z,7.4
2018-05-03T10:31:45.952Z,7.34
2018-05-03T10:32:45.896Z,7.46
2018-05-03T10:33:45.921Z,7.52
2018-05-03T10:34:45.914Z,7.53
2018-05-03T10:35:46.466Z,7.8
2018-05-03T10:36:45.884Z,7.58
2018-05-03T10:37:45.883Z,7.43
2018-05-03T10:38:45.868Z,7.32
2018-05-03T10:39:45.917Z,7.3
2018-05-03T10:40:45.896Z,7.38
2018-05-03T10:41:45.893Z,7.54
2018-05-03T10:42:45.910Z,7.68
2018-05-03T10:43:46.187Z,7.49
2018-05-03T10:44:45.902Z,7.58
2018-05-03T10:45:45.892Z,7.52
2018-05-03T10:46:45.896Z,7.54
2018-05-03T10:47:45.892Z,7.63
2018-05-03T10:48:45.908Z,7.6
2018-05-03T10:49:45.917Z,7.52
2018-05-03T10:50:45.912Z,7.51
2018-05-03T10:51:45.922Z,7.43
2018-05-03T10:52:45.955Z,7.74
2018-05-03T10:53:45.875Z,7.7
2018-05-03T10:54:46.019Z,7.56
2018-05-03T10:55:45.949Z,7.48
2018-05-03T10:56:45.981Z,7.71
2018-05-03T10:57:45.902Z,7.52
2018-05-03T10:58:45.929Z,7.65
2018-05-03T10:59:45.894Z,7.42
2018-05-03T11:00:45.942Z,7.71
2018-05-03T11:01:45.969Z,7.67
2018-05-03T11:02:45.962Z,7.55
2018-05-03T11:03:46.200Z,7.85
2018-05-03T11:04:45.939Z,7.5
2018-05-03T11:05:45.941Z,7.53
2018-05-03T11:06:45.949Z,7.86
2018-05-03T11:07:45.937Z,7.48
2018-05-03T11:08:45.956Z,7.41
2018-05-03T11:09:45.910Z,7.26
2018-05-03T11:10:45.928Z,7.41
2018-05-03T11:11:45.891Z,7.4
2018-05-03T11:12:45.896Z,7.66
2018-05-03T11:13:45.917Z,7.47
2018-05-03T11:14:46.003Z,7.38
2018-05-03T11:15:45.923Z,7.49
2018-05-03T11:16:46.113Z,7.62
2018-05-03T11:17:45.988Z,7.75
2018-05-03T11:18:45.955Z,7.66
2018-05-03T11:19:45.936Z,7.32
2018-05-03T11:20:46.031Z,7.51
2018-05-03T11:21:45.924Z,7.89
2018-05-03T11:22:45.951Z,7.73
2018-05-03T11:23:46.102Z,7.52
2018-05-03T11:24:46.012Z,7.25
2018-05-03T11:25:45.949Z,7.67
2018-05-03T11:26:45.905Z,7.65
2018-05-03T11:27:46.000Z,7.68
2018-05-03T11:28:46.049Z,7.72
2018-05-03T11:29:46.078Z,7.55
2018-05-03T11:30:46.054Z,7.6
2018-05-03T11:31:45.941Z,7.55
2018-05-03T11:32:45.888Z,7.65
2018-05-03T11:33:45.904Z,7.5
2018-05-03T11:34:45.950Z,7.38
2018-05-03T11:35:45.907Z,6.94
2018-05-03T11:36:46.483Z,7.25
2018-05-03T11:37:45.927Z,7.34
2018-05-03T11:38:45.927Z,7.1
2018-05-03T11:39:45.972Z,6.59
2018-05-03T11:40:45.966Z,6.53
2018-05-03T11:41:45.918Z,6.67
2018-05-03T11:42:46.669Z,6.72
2018-05-03T11:43:45.932Z,6.56
2018-05-03T11:44:45.935Z,6.8
2018-05-03T11:45:46.008Z,6.68
2018-05-03T11:46:45.928Z,6.95
2018-05-03T11:47:45.977Z,6.9
2018-05-03T11:48:46.221Z,6.84
2018-05-03T11:49:45.900Z,6.57
2018-05-03T11:50:45.940Z,6.59
2018-05-03T11:51:45.900Z,6.64
2018-05-03T11:52:45.975Z,6.89
2018-05-03T11:53:45.920Z,6.7
2018-05-03T11:54:46.045Z,7.03
2018-05-03T11:55:45.984Z,7.07
2018-05-03T11:56:45.930Z,7.26
2018-05-03T11:57:46.130Z,7.06
2018-05-03T11:58:45.930Z,7.25
2018-05-03T11:59:46.031Z,7.5
2018-05-03T12:00:45.979Z,7.23
2018-05-03T12:01:45.913Z,7.17
2018-05-03T12:02:45.928Z,7.05
2018-05-03T12:03:45.924Z,6.95
2018-05-03T12:04:46.069Z,6.65
2018-05-03T12:05:45.957Z,6.82
2018-05-03T12:06:46.196Z,6.52
2018-05-03T12:07:46.033Z,6.49
2018-05-03T12:08:45.954Z,6.46
2018-05-03T12:09:46.071Z,6.38
2018-05-03T12:10:45.966Z,6.53
2018-05-03T12:11:46.464Z,6.51
2018-05-03T12:12:45.994Z,6.38
2018-05-03T12:13:46.000Z,5.85
2018-05-03T12:14:46.057Z,6.38
2018-05-03T12:15:46.024Z,6.49
2018-05-03T12:16:45.977Z,6.77
2018-05-03T12:17:45.993Z,6.48
2018-05-03T12:18:46.073Z,6.66
2018-05-03T12:19:45.966Z,6.88
2018-05-03T12:20:45.960Z,6.98
2018-05-03T12:21:45.967Z,6.93
2018-05-03T12:22:45.987Z,6.58
2018-05-03T12:23:45.976Z,6.75
2018-05-03T12:24:45.964Z,6.75
2018-05-03T12:25:46.010Z,6.58
2018-05-03T12:26:46.096Z,6.95
2018-05-03T12:27:45.942Z,7.08
2018-05-03T12:28:46.088Z,6.99
2018-05-03T12:29:45.988Z,7.01
2018-05-03T12:30:45.944Z,7.1
2018-05-03T12:31:46.002Z,7.13
2018-05-03T12:32:45.970Z,7.36
2018-05-03T12:33:45.935Z,7.38
2018-05-03T12:34:46.235Z,7.51
2018-05-03T12:35:45.970Z,7.57
2018-05-03T12:36:45.976Z,8.1
2018-05-03T12:37:46.052Z,7.6
2018-05-03T12:38:46.037Z,7.72
2018-05-03T12:39:45.946Z,7.87
2018-05-03T12:40:45.972Z,7.96
2018-05-03T12:41:45.963Z,7.9
2018-05-03T12:42:45.953Z,7.72
2018-05-03T12:43:45.932Z,7
2018-05-03T12:44:45.939Z,7.12
2018-05-03T12:45:45.944Z,7.76
2018-05-03T12:46:45.951Z,7.49
2018-05-03T12:47:45.997Z,7.88
2018-05-03T12:48:45.954Z,7.55
2018-05-03T12:49:45.941Z,7.86
2018-05-03T12:50:45.946Z,7.77
2018-05-03T12:51:46.170Z,7.74
2018-05-03T12:52:45.985Z,7.64
2018-05-03T12:53:46.000Z,7.31
2018-05-03T12:54:45.968Z,7.32
2018-05-03T12:55:45.966Z,7.33
2018-05-03T12:56:45.952Z,7.57
2018-05-03T12:57:45.954Z,7.46
2018-05-03T12:58:45.969Z,7.24
2018-05-03T12:59:45.989Z,7.44
2018-05-03T13:00:46.745Z,7.48
2018-05-03T13:01:45.985Z,7.84
2018-05-03T13:02:45.957Z,7.47
2018-05-03T13:03:45.967Z,7.53
2018-05-03T13:04:45.976Z,7.58
2018-05-03T13:05:45.993Z,7.56
2018-05-03T13:06:45.986Z,7.8
2018-05-03T13:07:46.147Z,7.49
2018-05-03T13:08:45.983Z,7.45
2018-05-03T13:09:46.036Z,7.39
2018-05-03T13:10:46.083Z,7.54
2018-05-03T13:11:46.002Z,7.55
2018-05-03T13:12:46.039Z,7.25
2018-05-03T13:13:45.978Z,7.57
2018-05-03T13:14:45.965Z,7.65
2018-05-03T13:15:45.990Z,7.71
2018-05-03T13:16:46.014Z,7.65
2018-05-03T13:17:45.972Z,7.23
2018-05-03T13:18:46.069Z,7.5
2018-05-03T13:19:45.976Z,7.63
2018-05-03T13:20:45.980Z,7.7
2018-05-03T13:21:45.970Z,7.59